sensor_id;sensor_type;location;lat;lon;timestamp;P1;durP1;ratioP1;P2;durP2;ratioP2
56943;SDS011;42848;42.524;12.052;2023-09-12T00:01:05;10.45;;;7.40;;
56943;SDS011;42848;42.524;12.052;2023-09-12T00:03:32;8.55;;;7.50;;
56943;SDS011;42848;42.524;12.052;2023-09-12T00:06:00;8.63;;;7.53;;
56943;SDS011;42848;42.524;12.052;2023-09-12T00:08:26;9.02;;;7.43;;
56943;SDS011;42848;42.524;12.052;2023-09-12T00:11:02;8.27;;;7.38;;
56943;SDS011;42848;42.524;12.052;2023-09-12T00:13:29;8.90;;;7.72;;
56943;SDS011;42848;42.524;12.052;2023-09-12T00:15:56;10.13;;;7.30;;
56943;SDS011;42848;42.524;12.052;2023-09-12T00:18:22;9.20;;;7.57;;
56943;SDS011;42848;42.524;12.052;2023-09-12T00:20:49;8.10;;;6.85;;
56943;SDS011;42848;42.524;12.052;2023-09-12T00:23:16;8.60;;;7.20;;
56943;SDS011;42848;42.524;12.052;2023-09-12T00:25:41;10.63;;;7.30;;
56943;SDS011;42848;42.524;12.052;2023-09-12T00:28:07;8.50;;;7.10;;
56943;SDS011;42848;42.524;12.052;2023-09-12T00:30:33;9.23;;;6.95;;
56943;SDS011;42848;42.524;12.052;2023-09-12T00:32:58;8.60;;;7.45;;
56943;SDS011;42848;42.524;12.052;2023-09-12T00:35:24;8.20;;;7.18;;
56943;SDS011;42848;42.524;12.052;2023-09-12T00:37:49;8.13;;;6.82;;
56943;SDS011;42848;42.524;12.052;2023-09-12T00:40:15;8.25;;;7.13;;
56943;SDS011;42848;42.524;12.052;2023-09-12T00:42:40;8.93;;;7.13;;
56943;SDS011;42848;42.524;12.052;2023-09-12T00:45:06;8.40;;;6.60;;
56943;SDS011;42848;42.524;12.052;2023-09-12T00:47:32;8.38;;;6.97;;
56943;SDS011;42848;42.524;12.052;2023-09-12T00:49:59;8.20;;;6.85;;
56943;SDS011;42848;42.524;12.052;2023-09-12T00:52:26;8.63;;;7.20;;
56943;SDS011;42848;42.524;12.052;2023-09-12T00:54:53;11.30;;;7.53;;
56943;SDS011;42848;42.524;12.052;2023-09-12T00:57:21;8.60;;;6.97;;
56943;SDS011;42848;42.524;12.052;2023-09-12T00:59:47;8.27;;;6.75;;
56943;SDS011;42848;42.524;12.052;2023-09-12T01:02:13;8.10;;;6.57;;
56943;SDS011;42848;42.524;12.052;2023-09-12T01:04:39;7.80;;;6.95;;
56943;SDS011;42848;42.524;12.052;2023-09-12T01:07:06;8.73;;;6.80;;
56943;SDS011;42848;42.524;12.052;2023-09-12T01:09:32;9.23;;;6.95;;
56943;SDS011;42848;42.524;12.052;2023-09-12T01:11:59;9.30;;;7.00;;
56943;SDS011;42848;42.524;12.052;2023-09-12T01:14:28;8.63;;;6.88;;
56943;SDS011;42848;42.524;12.052;2023-09-12T01:16:55;7.68;;;6.57;;
56943;SDS011;42848;42.524;12.052;2023-09-12T01:19:21;9.02;;;6.82;;
56943;SDS011;42848;42.524;12.052;2023-09-12T01:22:10;8.32;;;6.90;;
56943;SDS011;42848;42.524;12.052;2023-09-12T01:27:52;9.32;;;6.65;;
56943;SDS011;42848;42.524;12.052;2023-09-12T01:30:23;7.38;;;6.57;;
56943;SDS011;42848;42.524;12.052;2023-09-12T01:32:53;7.28;;;6.47;;
56943;SDS011;42848;42.524;12.052;2023-09-12T01:35:20;8.80;;;7.00;;
56943;SDS011;42848;42.524;12.052;2023-09-12T01:37:45;8.43;;;6.88;;
56943;SDS011;42848;42.524;12.052;2023-09-12T01:40:11;8.27;;;7.00;;
56943;SDS011;42848;42.524;12.052;2023-09-12T01:42:40;8.20;;;6.72;;
56943;SDS011;42848;42.524;12.052;2023-09-12T01:45:09;7.50;;;6.70;;
56943;SDS011;42848;42.524;12.052;2023-09-12T01:47:37;8.10;;;6.55;;
56943;SDS011;42848;42.524;12.052;2023-09-12T01:50:05;10.43;;;6.68;;
56943;SDS011;42848;42.524;12.052;2023-09-12T01:52:33;7.88;;;6.75;;
56943;SDS011;42848;42.524;12.052;2023-09-12T01:55:00;7.50;;;6.60;;
56943;SDS011;42848;42.524;12.052;2023-09-12T01:57:27;9.05;;;6.80;;
56943;SDS011;42848;42.524;12.052;2023-09-12T01:59:54;9.18;;;6.78;;
56943;SDS011;42848;42.524;12.052;2023-09-12T02:02:20;8.35;;;6.75;;
56943;SDS011;42848;42.524;12.052;2023-09-12T02:04:54;9.18;;;6.90;;
56943;SDS011;42848;42.524;12.052;2023-09-12T02:07:35;7.95;;;6.80;;
56943;SDS011;42848;42.524;12.052;2023-09-12T02:10:03;7.53;;;6.28;;
56943;SDS011;42848;42.524;12.052;2023-09-12T02:12:30;7.22;;;6.40;;
56943;SDS011;42848;42.524;12.052;2023-09-12T02:14:57;8.00;;;6.68;;
56943;SDS011;42848;42.524;12.052;2023-09-12T02:17:22;7.93;;;6.75;;
56943;SDS011;42848;42.524;12.052;2023-09-12T02:19:48;11.80;;;8.18;;
56943;SDS011;42848;42.524;12.052;2023-09-12T02:22:14;8.25;;;6.97;;
56943;SDS011;42848;42.524;12.052;2023-09-12T02:24:39;14.40;;;6.97;;
56943;SDS011;42848;42.524;12.052;2023-09-12T02:27:05;9.40;;;6.82;;
56943;SDS011;42848;42.524;12.052;2023-09-12T02:29:30;10.30;;;7.15;;
56943;SDS011;42848;42.524;12.052;2023-09-12T02:31:58;8.57;;;7.03;;
56943;SDS011;42848;42.524;12.052;2023-09-12T02:34:23;8.18;;;6.88;;
56943;SDS011;42848;42.524;12.052;2023-09-12T02:36:49;9.80;;;7.10;;
56943;SDS011;42848;42.524;12.052;2023-09-12T02:39:15;9.50;;;7.47;;
56943;SDS011;42848;42.524;12.052;2023-09-12T02:41:40;7.53;;;6.70;;
56943;SDS011;42848;42.524;12.052;2023-09-12T02:44:06;8.93;;;7.03;;
56943;SDS011;42848;42.524;12.052;2023-09-12T02:46:32;9.23;;;6.93;;
56943;SDS011;42848;42.524;12.052;2023-09-12T02:48:58;11.13;;;6.78;;
56943;SDS011;42848;42.524;12.052;2023-09-12T02:51:25;8.93;;;7.13;;
56943;SDS011;42848;42.524;12.052;2023-09-12T02:53:51;9.13;;;7.22;;
56943;SDS011;42848;42.524;12.052;2023-09-12T02:56:17;9.43;;;6.85;;
56943;SDS011;42848;42.524;12.052;2023-09-12T02:58:45;9.95;;;7.10;;
56943;SDS011;42848;42.524;12.052;2023-09-12T03:01:14;8.48;;;6.95;;
56943;SDS011;42848;42.524;12.052;2023-09-12T03:03:41;10.38;;;7.43;;
56943;SDS011;42848;42.524;12.052;2023-09-12T03:06:07;8.02;;;7.00;;
56943;SDS011;42848;42.524;12.052;2023-09-12T03:08:32;7.97;;;6.63;;
56943;SDS011;42848;42.524;12.052;2023-09-12T03:10:58;8.93;;;7.00;;
56943;SDS011;42848;42.524;12.052;2023-09-12T03:13:24;8.65;;;6.72;;
56943;SDS011;42848;42.524;12.052;2023-09-12T03:15:50;10.27;;;6.80;;
56943;SDS011;42848;42.524;12.052;2023-09-12T03:18:16;8.80;;;6.60;;
56943;SDS011;42848;42.524;12.052;2023-09-12T03:20:42;9.68;;;6.80;;
56943;SDS011;42848;42.524;12.052;2023-09-12T03:23:08;8.75;;;6.90;;
56943;SDS011;42848;42.524;12.052;2023-09-12T03:25:37;9.73;;;7.18;;
56943;SDS011;42848;42.524;12.052;2023-09-12T03:28:03;9.10;;;6.63;;
56943;SDS011;42848;42.524;12.052;2023-09-12T03:30:31;8.13;;;7.03;;
56943;SDS011;42848;42.524;12.052;2023-09-12T03:33:01;13.63;;;9.48;;
56943;SDS011;42848;42.524;12.052;2023-09-12T03:35:28;10.80;;;7.40;;
56943;SDS011;42848;42.524;12.052;2023-09-12T03:37:55;8.65;;;7.00;;
56943;SDS011;42848;42.524;12.052;2023-09-12T03:40:20;9.00;;;6.78;;
56943;SDS011;42848;42.524;12.052;2023-09-12T03:42:46;10.13;;;6.97;;
56943;SDS011;42848;42.524;12.052;2023-09-12T03:45:11;8.73;;;6.57;;
56943;SDS011;42848;42.524;12.052;2023-09-12T03:47:37;8.50;;;6.78;;
56943;SDS011;42848;42.524;12.052;2023-09-12T03:50:03;8.25;;;6.40;;
56943;SDS011;42848;42.524;12.052;2023-09-12T03:52:29;11.27;;;7.55;;
56943;SDS011;42848;42.524;12.052;2023-09-12T03:54:55;11.45;;;7.18;;
56943;SDS011;42848;42.524;12.052;2023-09-12T03:57:20;10.80;;;7.45;;
56943;SDS011;42848;42.524;12.052;2023-09-12T03:59:47;10.25;;;7.28;;
56943;SDS011;42848;42.524;12.052;2023-09-12T04:02:13;8.50;;;7.00;;
56943;SDS011;42848;42.524;12.052;2023-09-12T04:04:38;10.50;;;7.60;;
56943;SDS011;42848;42.524;12.052;2023-09-12T04:07:04;13.48;;;7.47;;
56943;SDS011;42848;42.524;12.052;2023-09-12T04:09:30;11.07;;;7.60;;
56943;SDS011;42848;42.524;12.052;2023-09-12T04:11:56;9.18;;;7.22;;
56943;SDS011;42848;42.524;12.052;2023-09-12T04:14:22;9.35;;;7.10;;
56943;SDS011;42848;42.524;12.052;2023-09-12T04:16:48;9.23;;;6.93;;
56943;SDS011;42848;42.524;12.052;2023-09-12T04:19:14;15.15;;;7.47;;
56943;SDS011;42848;42.524;12.052;2023-09-12T04:21:40;9.10;;;7.25;;
56943;SDS011;42848;42.524;12.052;2023-09-12T04:24:06;9.20;;;6.95;;
56943;SDS011;42848;42.524;12.052;2023-09-12T04:26:32;8.63;;;6.93;;
56943;SDS011;42848;42.524;12.052;2023-09-12T04:28:58;8.85;;;6.65;;
56943;SDS011;42848;42.524;12.052;2023-09-12T04:31:24;9.27;;;6.97;;
56943;SDS011;42848;42.524;12.052;2023-09-12T04:33:50;9.68;;;6.90;;
56943;SDS011;42848;42.524;12.052;2023-09-12T04:36:17;11.02;;;7.30;;
56943;SDS011;42848;42.524;12.052;2023-09-12T04:38:43;10.52;;;7.38;;
56943;SDS011;42848;42.524;12.052;2023-09-12T04:41:08;10.05;;;8.05;;
56943;SDS011;42848;42.524;12.052;2023-09-12T04:43:39;10.30;;;7.68;;
56943;SDS011;42848;42.524;12.052;2023-09-12T04:46:04;10.50;;;7.88;;
56943;SDS011;42848;42.524;12.052;2023-09-12T04:48:30;11.00;;;7.45;;
56943;SDS011;42848;42.524;12.052;2023-09-12T04:50:56;10.20;;;7.03;;
56943;SDS011;42848;42.524;12.052;2023-09-12T04:53:22;12.90;;;8.18;;
56943;SDS011;42848;42.524;12.052;2023-09-12T04:55:47;12.05;;;7.70;;
56943;SDS011;42848;42.524;12.052;2023-09-12T04:58:13;10.38;;;7.63;;
56943;SDS011;42848;42.524;12.052;2023-09-12T05:00:39;13.35;;;7.80;;
56943;SDS011;42848;42.524;12.052;2023-09-12T05:03:06;11.50;;;7.72;;
56943;SDS011;42848;42.524;12.052;2023-09-12T05:05:33;9.95;;;7.80;;
56943;SDS011;42848;42.524;12.052;2023-09-12T05:08:01;9.10;;;7.18;;
56943;SDS011;42848;42.524;12.052;2023-09-12T05:10:27;11.23;;;8.65;;
56943;SDS011;42848;42.524;12.052;2023-09-12T05:12:53;12.15;;;9.00;;
56943;SDS011;42848;42.524;12.052;2023-09-12T05:15:18;14.57;;;9.23;;
56943;SDS011;42848;42.524;12.052;2023-09-12T05:17:44;12.63;;;8.90;;
56943;SDS011;42848;42.524;12.052;2023-09-12T05:20:10;11.68;;;8.48;;
56943;SDS011;42848;42.524;12.052;2023-09-12T05:22:35;11.82;;;7.82;;
56943;SDS011;42848;42.524;12.052;2023-09-12T05:25:01;14.57;;;8.48;;
56943;SDS011;42848;42.524;12.052;2023-09-12T05:27:26;11.25;;;9.05;;
56943;SDS011;42848;42.524;12.052;2023-09-12T05:29:52;11.13;;;8.45;;
56943;SDS011;42848;42.524;12.052;2023-09-12T05:32:17;13.32;;;9.10;;
56943;SDS011;42848;42.524;12.052;2023-09-12T05:34:43;13.50;;;9.23;;
56943;SDS011;42848;42.524;12.052;2023-09-12T05:37:10;14.65;;;10.07;;
56943;SDS011;42848;42.524;12.052;2023-09-12T05:39:36;13.20;;;10.13;;
56943;SDS011;42848;42.524;12.052;2023-09-12T05:42:01;13.75;;;9.45;;
56943;SDS011;42848;42.524;12.052;2023-09-12T05:44:27;14.85;;;9.50;;
56943;SDS011;42848;42.524;12.052;2023-09-12T05:46:53;13.02;;;9.25;;
56943;SDS011;42848;42.524;12.052;2023-09-12T05:49:19;13.32;;;9.65;;
56943;SDS011;42848;42.524;12.052;2023-09-12T05:51:45;14.32;;;9.43;;
56943;SDS011;42848;42.524;12.052;2023-09-12T05:54:10;12.82;;;9.10;;
56943;SDS011;42848;42.524;12.052;2023-09-12T05:56:38;14.98;;;10.55;;
56943;SDS011;42848;42.524;12.052;2023-09-12T05:59:04;13.25;;;10.45;;
56943;SDS011;42848;42.524;12.052;2023-09-12T06:01:29;15.38;;;10.18;;
56943;SDS011;42848;42.524;12.052;2023-09-12T06:03:55;12.77;;;9.52;;
56943;SDS011;42848;42.524;12.052;2023-09-12T06:06:21;12.55;;;9.63;;
56943;SDS011;42848;42.524;12.052;2023-09-12T06:08:48;16.65;;;10.35;;
56943;SDS011;42848;42.524;12.052;2023-09-12T06:11:13;15.13;;;9.80;;
56943;SDS011;42848;42.524;12.052;2023-09-12T06:13:39;22.75;;;9.50;;
56943;SDS011;42848;42.524;12.052;2023-09-12T06:16:05;12.43;;;9.00;;
56943;SDS011;42848;42.524;12.052;2023-09-12T06:18:31;14.75;;;9.40;;
56943;SDS011;42848;42.524;12.052;2023-09-12T06:20:59;12.55;;;8.93;;
56943;SDS011;42848;42.524;12.052;2023-09-12T06:23:29;13.85;;;9.25;;
56943;SDS011;42848;42.524;12.052;2023-09-12T06:25:56;17.30;;;9.38;;
56943;SDS011;42848;42.524;12.052;2023-09-12T06:28:28;12.70;;;9.38;;
56943;SDS011;42848;42.524;12.052;2023-09-12T06:30:55;15.98;;;9.00;;
56943;SDS011;42848;42.524;12.052;2023-09-12T06:33:25;18.55;;;9.23;;
56943;SDS011;42848;42.524;12.052;2023-09-12T06:35:52;12.75;;;8.27;;
56943;SDS011;42848;42.524;12.052;2023-09-12T06:38:18;9.50;;;7.90;;
56943;SDS011;42848;42.524;12.052;2023-09-12T06:40:44;9.95;;;7.95;;
56943;SDS011;42848;42.524;12.052;2023-09-12T06:43:12;11.00;;;8.05;;
56943;SDS011;42848;42.524;12.052;2023-09-12T06:45:40;12.98;;;8.23;;
56943;SDS011;42848;42.524;12.052;2023-09-12T06:48:06;9.13;;;6.60;;
56943;SDS011;42848;42.524;12.052;2023-09-12T06:50:32;10.57;;;6.90;;
56943;SDS011;42848;42.524;12.052;2023-09-12T06:52:57;9.57;;;6.57;;
56943;SDS011;42848;42.524;12.052;2023-09-12T06:55:23;9.30;;;6.60;;
56943;SDS011;42848;42.524;12.052;2023-09-12T06:57:50;10.07;;;6.93;;
56943;SDS011;42848;42.524;12.052;2023-09-12T07:00:15;8.68;;;6.40;;
56943;SDS011;42848;42.524;12.052;2023-09-12T07:02:41;8.60;;;6.53;;
56943;SDS011;42848;42.524;12.052;2023-09-12T07:05:08;8.27;;;6.40;;
56943;SDS011;42848;42.524;12.052;2023-09-12T07:07:34;8.70;;;6.55;;
56943;SDS011;42848;42.524;12.052;2023-09-12T07:09:59;9.35;;;6.05;;
56943;SDS011;42848;42.524;12.052;2023-09-12T07:12:26;10.00;;;6.70;;
56943;SDS011;42848;42.524;12.052;2023-09-12T07:14:54;9.57;;;6.60;;
56943;SDS011;42848;42.524;12.052;2023-09-12T07:17:21;10.00;;;6.63;;
56943;SDS011;42848;42.524;12.052;2023-09-12T07:19:47;11.82;;;6.80;;
56943;SDS011;42848;42.524;12.052;2023-09-12T07:22:13;11.88;;;7.40;;
56943;SDS011;42848;42.524;12.052;2023-09-12T07:24:38;9.23;;;6.85;;
56943;SDS011;42848;42.524;12.052;2023-09-12T07:27:04;10.13;;;6.80;;
56943;SDS011;42848;42.524;12.052;2023-09-12T07:29:30;12.90;;;6.82;;
56943;SDS011;42848;42.524;12.052;2023-09-12T07:31:55;10.48;;;7.40;;
56943;SDS011;42848;42.524;12.052;2023-09-12T07:34:21;8.75;;;6.90;;
56943;SDS011;42848;42.524;12.052;2023-09-12T07:36:48;9.60;;;6.88;;
56943;SDS011;42848;42.524;12.052;2023-09-12T07:39:13;9.18;;;6.80;;
56943;SDS011;42848;42.524;12.052;2023-09-12T07:41:39;8.52;;;6.63;;
56943;SDS011;42848;42.524;12.052;2023-09-12T07:44:05;10.40;;;6.65;;
56943;SDS011;42848;42.524;12.052;2023-09-12T07:46:33;13.35;;;7.25;;
56943;SDS011;42848;42.524;12.052;2023-09-12T07:48:58;9.45;;;7.03;;
56943;SDS011;42848;42.524;12.052;2023-09-12T07:51:24;11.63;;;7.22;;
56943;SDS011;42848;42.524;12.052;2023-09-12T07:53:50;11.93;;;8.68;;
56943;SDS011;42848;42.524;12.052;2023-09-12T07:56:15;13.52;;;9.48;;
56943;SDS011;42848;42.524;12.052;2023-09-12T07:58:41;12.82;;;8.70;;
56943;SDS011;42848;42.524;12.052;2023-09-12T08:01:09;12.35;;;7.60;;
56943;SDS011;42848;42.524;12.052;2023-09-12T08:03:35;12.38;;;7.38;;
56943;SDS011;42848;42.524;12.052;2023-09-12T08:06:04;12.48;;;7.18;;
56943;SDS011;42848;42.524;12.052;2023-09-12T08:08:30;9.18;;;7.35;;
56943;SDS011;42848;42.524;12.052;2023-09-12T08:10:56;9.20;;;7.20;;
56943;SDS011;42848;42.524;12.052;2023-09-12T08:13:22;11.32;;;6.97;;
56943;SDS011;42848;42.524;12.052;2023-09-12T08:15:51;8.35;;;6.90;;
56943;SDS011;42848;42.524;12.052;2023-09-12T08:18:16;9.98;;;7.15;;
56943;SDS011;42848;42.524;12.052;2023-09-12T08:20:42;11.05;;;7.32;;
56943;SDS011;42848;42.524;12.052;2023-09-12T08:23:08;10.23;;;7.22;;
56943;SDS011;42848;42.524;12.052;2023-09-12T08:25:34;11.43;;;7.60;;
56943;SDS011;42848;42.524;12.052;2023-09-12T08:28:00;10.10;;;7.60;;
56943;SDS011;42848;42.524;12.052;2023-09-12T08:30:26;9.50;;;7.20;;
56943;SDS011;42848;42.524;12.052;2023-09-12T08:32:55;9.70;;;7.32;;
56943;SDS011;42848;42.524;12.052;2023-09-12T08:35:21;10.30;;;7.60;;
56943;SDS011;42848;42.524;12.052;2023-09-12T08:37:47;7.97;;;6.85;;
56943;SDS011;42848;42.524;12.052;2023-09-12T08:40:13;8.93;;;6.90;;
56943;SDS011;42848;42.524;12.052;2023-09-12T08:45:07;9.30;;;6.55;;
56943;SDS011;42848;42.524;12.052;2023-09-12T08:47:38;9.02;;;6.85;;
56943;SDS011;42848;42.524;12.052;2023-09-12T08:50:07;7.70;;;6.78;;
56943;SDS011;42848;42.524;12.052;2023-09-12T08:52:42;8.50;;;6.38;;
56943;SDS011;42848;42.524;12.052;2023-09-12T08:55:09;8.98;;;6.05;;
56943;SDS011;42848;42.524;12.052;2023-09-12T08:57:36;11.88;;;6.13;;
56943;SDS011;42848;42.524;12.052;2023-09-12T09:00:04;10.75;;;6.70;;
56943;SDS011;42848;42.524;12.052;2023-09-12T09:02:37;12.90;;;7.00;;
56943;SDS011;42848;42.524;12.052;2023-09-12T09:05:03;9.50;;;6.63;;
56943;SDS011;42848;42.524;12.052;2023-09-12T09:07:37;10.77;;;6.53;;
56943;SDS011;42848;42.524;12.052;2023-09-12T09:10:06;8.80;;;6.57;;
56943;SDS011;42848;42.524;12.052;2023-09-12T09:12:34;9.07;;;6.00;;
56943;SDS011;42848;42.524;12.052;2023-09-12T09:17:46;8.25;;;5.85;;
56943;SDS011;42848;42.524;12.052;2023-09-12T09:20:24;8.27;;;5.80;;
56943;SDS011;42848;42.524;12.052;2023-09-12T09:22:56;7.85;;;5.47;;
56943;SDS011;42848;42.524;12.052;2023-09-12T09:25:23;6.70;;;5.60;;
56943;SDS011;42848;42.524;12.052;2023-09-12T09:27:48;9.32;;;6.40;;
56943;SDS011;42848;42.524;12.052;2023-09-12T09:30:14;7.53;;;5.57;;
56943;SDS011;42848;42.524;12.052;2023-09-12T09:32:39;8.90;;;6.00;;
56943;SDS011;42848;42.524;12.052;2023-09-12T09:35:05;12.57;;;5.70;;
56943;SDS011;42848;42.524;12.052;2023-09-12T09:37:31;9.38;;;5.55;;
56943;SDS011;42848;42.524;12.052;2023-09-12T09:39:57;8.88;;;5.72;;
56943;SDS011;42848;42.524;12.052;2023-09-12T09:42:23;8.35;;;5.40;;
56943;SDS011;42848;42.524;12.052;2023-09-12T09:44:49;10.32;;;5.70;;
56943;SDS011;42848;42.524;12.052;2023-09-12T09:47:15;9.52;;;5.70;;
56943;SDS011;42848;42.524;12.052;2023-09-12T09:49:40;10.77;;;5.90;;
56943;SDS011;42848;42.524;12.052;2023-09-12T09:52:10;6.63;;;5.30;;
56943;SDS011;42848;42.524;12.052;2023-09-12T09:54:36;8.70;;;5.18;;
56943;SDS011;42848;42.524;12.052;2023-09-12T09:57:09;7.80;;;5.43;;
56943;SDS011;42848;42.524;12.052;2023-09-12T09:59:35;7.80;;;5.32;;
56943;SDS011;42848;42.524;12.052;2023-09-12T10:02:01;7.35;;;5.43;;
56943;SDS011;42848;42.524;12.052;2023-09-12T10:04:29;10.63;;;5.45;;
56943;SDS011;42848;42.524;12.052;2023-09-12T10:06:57;8.73;;;5.50;;
56943;SDS011;42848;42.524;12.052;2023-09-12T10:09:25;8.55;;;5.50;;
56943;SDS011;42848;42.524;12.052;2023-09-12T10:11:52;7.07;;;5.43;;
56943;SDS011;42848;42.524;12.052;2023-09-12T10:14:20;6.57;;;5.50;;
56943;SDS011;42848;42.524;12.052;2023-09-12T10:16:49;7.35;;;5.40;;
56943;SDS011;42848;42.524;12.052;2023-09-12T10:19:18;6.95;;;5.20;;
56943;SDS011;42848;42.524;12.052;2023-09-12T10:24:37;8.05;;;5.30;;
56943;SDS011;42848;42.524;12.052;2023-09-12T10:27:05;6.80;;;5.10;;
56943;SDS011;42848;42.524;12.052;2023-09-12T10:29:31;6.30;;;5.20;;
56943;SDS011;42848;42.524;12.052;2023-09-12T10:31:57;9.07;;;5.47;;
56943;SDS011;42848;42.524;12.052;2023-09-12T10:34:24;6.13;;;5.22;;
56943;SDS011;42848;42.524;12.052;2023-09-12T10:36:51;8.50;;;5.40;;
56943;SDS011;42848;42.524;12.052;2023-09-12T10:39:20;9.57;;;5.43;;
56943;SDS011;42848;42.524;12.052;2023-09-12T10:41:47;9.02;;;5.60;;
56943;SDS011;42848;42.524;12.052;2023-09-12T10:44:17;6.68;;;5.32;;
56943;SDS011;42848;42.524;12.052;2023-09-12T10:46:43;9.32;;;5.60;;
56943;SDS011;42848;42.524;12.052;2023-09-12T10:49:11;6.72;;;5.35;;
56943;SDS011;42848;42.524;12.052;2023-09-12T10:51:41;7.70;;;5.15;;
56943;SDS011;42848;42.524;12.052;2023-09-12T10:54:09;10.65;;;5.45;;
56943;SDS011;42848;42.524;12.052;2023-09-12T10:57:01;7.05;;;5.30;;
56943;SDS011;42848;42.524;12.052;2023-09-12T10:59:28;7.63;;;5.50;;
56943;SDS011;42848;42.524;12.052;2023-09-12T11:02:26;7.30;;;5.50;;
56943;SDS011;42848;42.524;12.052;2023-09-12T11:04:56;7.22;;;5.30;;
56943;SDS011;42848;42.524;12.052;2023-09-12T11:07:32;5.95;;;5.20;;
56943;SDS011;42848;42.524;12.052;2023-09-12T11:10:22;7.13;;;5.50;;
56943;SDS011;42848;42.524;12.052;2023-09-12T11:12:48;7.20;;;5.45;;
56943;SDS011;42848;42.524;12.052;2023-09-12T11:15:16;10.23;;;5.30;;
56943;SDS011;42848;42.524;12.052;2023-09-12T11:17:43;7.57;;;5.75;;
56943;SDS011;42848;42.524;12.052;2023-09-12T11:20:10;8.88;;;5.53;;
56943;SDS011;42848;42.524;12.052;2023-09-12T11:22:40;8.10;;;5.78;;
56943;SDS011;42848;42.524;12.052;2023-09-12T11:30:30;7.93;;;5.90;;
56943;SDS011;42848;42.524;12.052;2023-09-12T11:32:56;6.45;;;5.40;;
56943;SDS011;42848;42.524;12.052;2023-09-12T11:35:23;8.20;;;6.45;;
56943;SDS011;42848;42.524;12.052;2023-09-12T11:37:51;16.90;;;12.27;;
56943;SDS011;42848;42.524;12.052;2023-09-12T11:42:52;8.93;;;5.80;;
56943;SDS011;42848;42.524;12.052;2023-09-12T11:45:21;8.27;;;6.05;;
56943;SDS011;42848;42.524;12.052;2023-09-12T11:47:48;8.57;;;6.53;;
56943;SDS011;42848;42.524;12.052;2023-09-12T11:50:30;7.40;;;6.18;;
56943;SDS011;42848;42.524;12.052;2023-09-12T11:55:36;6.70;;;5.82;;
56943;SDS011;42848;42.524;12.052;2023-09-12T11:58:08;8.07;;;5.63;;
56943;SDS011;42848;42.524;12.052;2023-09-12T12:00:34;9.40;;;6.28;;
56943;SDS011;42848;42.524;12.052;2023-09-12T12:02:59;11.00;;;7.32;;
56943;SDS011;42848;42.524;12.052;2023-09-12T12:05:25;12.85;;;8.98;;
56943;SDS011;42848;42.524;12.052;2023-09-12T12:07:51;9.30;;;7.22;;
56943;SDS011;42848;42.524;12.052;2023-09-12T12:10:17;8.30;;;7.05;;
56943;SDS011;42848;42.524;12.052;2023-09-12T12:12:46;9.35;;;6.32;;
56943;SDS011;42848;42.524;12.052;2023-09-12T12:15:12;7.60;;;5.65;;
56943;SDS011;42848;42.524;12.052;2023-09-12T12:17:41;9.43;;;6.60;;
56943;SDS011;42848;42.524;12.052;2023-09-12T12:20:11;8.77;;;6.25;;
56943;SDS011;42848;42.524;12.052;2023-09-12T12:22:37;9.32;;;5.35;;
56943;SDS011;42848;42.524;12.052;2023-09-12T12:25:10;8.48;;;5.72;;
56943;SDS011;42848;42.524;12.052;2023-09-12T12:27:37;8.90;;;6.88;;
56943;SDS011;42848;42.524;12.052;2023-09-12T12:30:11;10.10;;;6.53;;
56943;SDS011;42848;42.524;12.052;2023-09-12T12:32:44;10.93;;;5.65;;
56943;SDS011;42848;42.524;12.052;2023-09-12T12:35:22;7.40;;;5.85;;
56943;SDS011;42848;42.524;12.052;2023-09-12T12:37:53;6.30;;;5.15;;
56943;SDS011;42848;42.524;12.052;2023-09-12T12:40:23;7.40;;;5.40;;
56943;SDS011;42848;42.524;12.052;2023-09-12T12:42:50;7.97;;;5.45;;
56943;SDS011;42848;42.524;12.052;2023-09-12T12:45:16;6.53;;;5.50;;
56943;SDS011;42848;42.524;12.052;2023-09-12T12:47:46;7.30;;;5.50;;
56943;SDS011;42848;42.524;12.052;2023-09-12T12:50:16;7.40;;;5.50;;
56943;SDS011;42848;42.524;12.052;2023-09-12T12:52:46;7.70;;;5.32;;
56943;SDS011;42848;42.524;12.052;2023-09-12T12:55:13;8.57;;;5.53;;
56943;SDS011;42848;42.524;12.052;2023-09-12T12:57:42;6.32;;;5.30;;
56943;SDS011;42848;42.524;12.052;2023-09-12T13:00:10;7.90;;;5.57;;
56943;SDS011;42848;42.524;12.052;2023-09-12T13:02:40;6.63;;;5.45;;
56943;SDS011;42848;42.524;12.052;2023-09-12T13:05:26;5.97;;;5.03;;
56943;SDS011;42848;42.524;12.052;2023-09-12T13:07:54;7.43;;;5.40;;
56943;SDS011;42848;42.524;12.052;2023-09-12T13:10:20;8.18;;;5.32;;
56943;SDS011;42848;42.524;12.052;2023-09-12T13:12:47;7.63;;;5.10;;
56943;SDS011;42848;42.524;12.052;2023-09-12T13:15:13;6.18;;;5.15;;
56943;SDS011;42848;42.524;12.052;2023-09-12T13:17:42;6.22;;;4.90;;
56943;SDS011;42848;42.524;12.052;2023-09-12T13:20:09;9.15;;;5.10;;
56943;SDS011;42848;42.524;12.052;2023-09-12T13:22:35;5.97;;;5.03;;
56943;SDS011;42848;42.524;12.052;2023-09-12T13:25:01;6.75;;;4.90;;
56943;SDS011;42848;42.524;12.052;2023-09-12T13:27:27;7.20;;;5.45;;
56943;SDS011;42848;42.524;12.052;2023-09-12T13:29:53;8.57;;;5.10;;
56943;SDS011;42848;42.524;12.052;2023-09-12T13:32:19;10.98;;;8.18;;
56943;SDS011;42848;42.524;12.052;2023-09-12T13:34:44;14.20;;;5.72;;
56943;SDS011;42848;42.524;12.052;2023-09-12T13:37:10;9.02;;;5.55;;
56943;SDS011;42848;42.524;12.052;2023-09-12T13:39:36;5.95;;;4.93;;
56943;SDS011;42848;42.524;12.052;2023-09-12T13:42:01;5.30;;;4.80;;
56943;SDS011;42848;42.524;12.052;2023-09-12T13:44:29;7.15;;;5.30;;
56943;SDS011;42848;42.524;12.052;2023-09-12T13:46:55;5.50;;;4.95;;
56943;SDS011;42848;42.524;12.052;2023-09-12T13:49:21;6.82;;;5.07;;
56943;SDS011;42848;42.524;12.052;2023-09-12T13:51:46;7.43;;;5.20;;
56943;SDS011;42848;42.524;12.052;2023-09-12T13:54:12;5.93;;;5.20;;
56943;SDS011;42848;42.524;12.052;2023-09-12T13:56:40;7.53;;;5.38;;
56943;SDS011;42848;42.524;12.052;2023-09-12T13:59:06;5.40;;;4.72;;
56943;SDS011;42848;42.524;12.052;2023-09-12T14:01:32;6.35;;;5.20;;
56943;SDS011;42848;42.524;12.052;2023-09-12T14:03:58;6.85;;;5.43;;
56943;SDS011;42848;42.524;12.052;2023-09-12T14:06:23;6.57;;;4.78;;
56943;SDS011;42848;42.524;12.052;2023-09-12T14:08:49;7.60;;;5.22;;
56943;SDS011;42848;42.524;12.052;2023-09-12T14:11:16;6.40;;;4.90;;
56943;SDS011;42848;42.524;12.052;2023-09-12T14:13:43;5.70;;;4.60;;
56943;SDS011;42848;42.524;12.052;2023-09-12T14:16:08;7.05;;;4.85;;
56943;SDS011;42848;42.524;12.052;2023-09-12T14:18:34;7.25;;;5.00;;
56943;SDS011;42848;42.524;12.052;2023-09-12T14:21:00;6.15;;;4.57;;
56943;SDS011;42848;42.524;12.052;2023-09-12T14:23:25;7.30;;;4.95;;
56943;SDS011;42848;42.524;12.052;2023-09-12T14:25:51;8.48;;;5.10;;
56943;SDS011;42848;42.524;12.052;2023-09-12T14:28:16;6.72;;;4.53;;
56943;SDS011;42848;42.524;12.052;2023-09-12T14:30:43;6.53;;;4.82;;
56943;SDS011;42848;42.524;12.052;2023-09-12T14:33:11;7.18;;;4.63;;
56943;SDS011;42848;42.524;12.052;2023-09-12T14:35:37;6.22;;;4.63;;
56943;SDS011;42848;42.524;12.052;2023-09-12T14:38:03;6.28;;;4.70;;
56943;SDS011;42848;42.524;12.052;2023-09-12T14:40:29;7.22;;;4.72;;
56943;SDS011;42848;42.524;12.052;2023-09-12T14:42:56;5.47;;;4.78;;
56943;SDS011;42848;42.524;12.052;2023-09-12T14:45:21;5.75;;;4.65;;
56943;SDS011;42848;42.524;12.052;2023-09-12T14:47:48;8.45;;;4.90;;
56943;SDS011;42848;42.524;12.052;2023-09-12T14:50:14;6.22;;;4.47;;
56943;SDS011;42848;42.524;12.052;2023-09-12T14:52:40;6.55;;;4.70;;